createdAt,value
2018-11-29T00:02:47.915Z,132.65
2018-11-29T00:06:02.175Z,132.57
2018-11-29T00:08:59.032Z,134.70
2018-11-29T00:11:55.290Z,142.25
2018-11-29T00:14:51.596Z,150.25
2018-11-29T00:17:50.950Z,145.43
2018-11-29T00:20:47.314Z,141.55
2018-11-29T00:23:43.072Z,145.92
2018-11-29T00:26:39.631Z,152.65
2018-11-29T00:29:35.929Z,149.57
2018-11-29T00:32:32.512Z,147.82
2018-11-29T00:35:30.164Z,143.70
2018-11-29T00:38:26.662Z,128.02
2018-11-29T00:41:23.198Z,124.75
2018-11-29T00:44:19.426Z,120.85
2018-11-29T00:47:15.486Z,112.28
2018-11-29T00:50:12.616Z,111.60
2018-11-29T00:53:09.487Z,113.75
2018-11-29T00:56:06.001Z,114.32
2018-11-29T00:59:04.950Z,113.95
2018-11-29T01:02:07.452Z,115.70
2018-11-29T01:05:03.353Z,115.82
2018-11-29T01:07:59.974Z,118.10
2018-11-29T01:10:56.104Z,127.70
2018-11-29T01:13:52.948Z,127.00
2018-11-29T01:16:49.528Z,129.68
2018-11-29T01:19:46.122Z,141.45
2018-11-29T01:22:42.517Z,145.38
2018-11-29T01:25:38.622Z,147.05
2018-11-29T01:28:34.800Z,144.95
2018-11-29T01:31:31.379Z,148.57
2018-11-29T01:34:27.564Z,147.85
2018-11-29T01:37:24.022Z,149.70
2018-11-29T01:40:21.865Z,151.12
2018-11-29T01:43:21.578Z,149.93
2018-11-29T01:46:18.300Z,146.47
2018-11-29T01:49:14.440Z,150.18
2018-11-29T01:52:10.464Z,169.45
2018-11-29T01:55:06.764Z,154.95
2018-11-29T01:58:02.913Z,157.67
2018-11-29T02:00:59.460Z,152.87
2018-11-29T02:03:59.504Z,156.25
2018-11-29T02:06:56.844Z,139.43
2018-11-29T02:10:14.290Z,147.62
2018-11-29T02:13:10.627Z,143.20
2018-11-29T02:16:07.200Z,143.02
2018-11-29T02:19:03.375Z,146.98
2018-11-29T02:22:03.400Z,154.47
2018-11-29T02:24:57.112Z,153.40
2018-11-29T02:27:56.698Z,159.10
2018-11-29T02:30:53.045Z,158.90
2018-11-29T02:33:51.762Z,160.90
2018-11-29T02:36:48.352Z,162.27
2018-11-29T02:39:44.392Z,159.57
2018-11-29T02:42:41.006Z,153.15
2018-11-29T02:45:37.334Z,161.35
2018-11-29T02:48:34.119Z,137.62
2018-11-29T02:51:30.770Z,149.65
2018-11-29T02:54:27.131Z,71.82
2018-11-29T02:57:23.611Z,92.45
2018-11-29T03:00:27.105Z,95.77
2018-11-29T03:03:23.015Z,112.17
2018-11-29T03:06:19.480Z,110.72
2018-11-29T03:09:16.118Z,99.67
2018-11-29T03:12:13.379Z,109.90
2018-11-29T03:15:11.978Z,111.47
2018-11-29T03:18:08.641Z,103.15
2018-11-29T03:21:05.299Z,92.95
2018-11-29T03:24:01.866Z,98.62
2018-11-29T03:26:57.962Z,90.72
2018-11-29T03:29:54.414Z,98.22
2018-11-29T03:32:50.804Z,113.30
2018-11-29T03:35:48.159Z,128.32
2018-11-29T03:38:44.586Z,147.45
2018-11-29T03:41:41.302Z,146.77
2018-11-29T03:44:37.691Z,143.97
2018-11-29T03:47:34.170Z,122.75
2018-11-29T03:50:30.011Z,112.52
2018-11-29T03:53:26.838Z,112.92
2018-11-29T03:56:23.015Z,125.20
2018-11-29T03:59:19.402Z,124.72
2018-11-29T04:02:15.886Z,123.75
2018-11-29T04:05:12.782Z,121.30
2018-11-29T04:08:09.094Z,119.85
2018-11-29T04:11:05.047Z,115.15
2018-11-29T04:14:01.996Z,114.42
2018-11-29T04:16:58.829Z,117.72
2018-11-29T04:19:54.882Z,111.30
2018-11-29T04:22:51.510Z,106.63
2018-11-29T04:25:47.798Z,103.83
2018-11-29T04:28:44.194Z,106.50
2018-11-29T04:31:41.109Z,113.83
2018-11-29T04:34:37.620Z,111.22
2018-11-29T04:37:34.516Z,114.37
2018-11-29T04:40:30.791Z,109.90
2018-11-29T04:43:28.082Z,110.83
2018-11-29T04:46:47.555Z,106.45
2018-11-29T04:49:44.231Z,105.97
2018-11-29T04:52:41.099Z,103.00
2018-11-29T04:55:37.839Z,96.63
2018-11-29T04:58:34.367Z,89.00
2018-11-29T05:01:30.995Z,90.72
2018-11-29T05:04:30.165Z,92.65
2018-11-29T05:07:27.730Z,85.32
2018-11-29T05:10:25.048Z,84.03
2018-11-29T05:13:22.696Z,86.57
2018-11-29T05:16:23.609Z,80.57
2018-11-29T05:19:18.100Z,79.77
2018-11-29T05:22:19.536Z,81.70
2018-11-29T05:25:16.909Z,82.57
2018-11-29T05:28:18.331Z,84.67
2018-11-29T05:31:15.056Z,78.28
2018-11-29T05:34:13.257Z,78.70
2018-11-29T05:37:10.166Z,80.50
2018-11-29T05:40:11.618Z,76.55
2018-11-29T05:43:08.493Z,71.92
2018-11-29T05:46:06.454Z,70.15
2018-11-29T05:49:02.433Z,70.83
2018-11-29T05:51:58.848Z,67.70
2018-11-29T05:54:58.605Z,62.60
2018-11-29T05:57:57.213Z,63.10
2018-11-29T06:00:54.052Z,62.33
2018-11-29T06:04:00.547Z,64.75
2018-11-29T06:07:04.729Z,65.15
2018-11-29T06:10:08.142Z,70.50
2018-11-29T06:13:05.695Z,70.60
2018-11-29T06:16:03.066Z,68.90
2018-11-29T06:19:05.664Z,64.27
2018-11-29T06:22:03.682Z,59.50
2018-11-29T06:25:02.792Z,55.58
2018-11-29T06:28:01.546Z,55.03
2018-11-29T06:31:04.004Z,64.87
2018-11-29T06:34:00.128Z,62.53
2018-11-29T06:37:22.263Z,62.08
2018-11-29T06:40:17.854Z,62.15
2018-11-29T06:43:16.535Z,61.18
2018-11-29T06:46:17.786Z,59.18
2018-11-29T06:49:15.366Z,60.60
2018-11-29T06:52:11.238Z,61.28
2018-11-29T06:55:08.018Z,60.33
2018-11-29T06:58:03.841Z,58.10
2018-11-29T07:00:59.861Z,53.55
2018-11-29T07:03:59.709Z,56.42
2018-11-29T07:06:53.555Z,56.53
2018-11-29T07:09:54.264Z,54.63
2018-11-29T07:12:50.761Z,56.48
2018-11-29T07:15:48.080Z,54.35
2018-11-29T07:18:44.766Z,52.48
2018-11-29T07:22:04.943Z,53.68
2018-11-29T07:25:00.666Z,52.53
2018-11-29T07:28:02.258Z,50.58
2018-11-29T07:31:03.576Z,50.15
2018-11-29T07:34:03.753Z,51.65
2018-11-29T07:37:17.363Z,53.08
2018-11-29T07:40:29.649Z,52.38
2018-11-29T07:43:26.341Z,49.73
2018-11-29T07:46:36.647Z,51.58
2018-11-29T07:49:32.235Z,50.78
2018-11-29T07:52:30.363Z,50.12
2018-11-29T07:55:39.564Z,49.48
2018-11-29T07:58:32.459Z,49.42
2018-11-29T08:01:31.656Z,49.00
2018-11-29T08:04:31.552Z,49.70
2018-11-29T08:07:29.188Z,49.70
2018-11-29T08:10:33.350Z,49.60
2018-11-29T08:13:40.235Z,48.65
2018-11-29T08:16:38.696Z,48.78
2018-11-29T08:19:45.821Z,50.58
2018-11-29T08:22:36.661Z,51.80
2018-11-29T08:25:36.710Z,50.45
2018-11-29T08:28:33.825Z,49.80
2018-11-29T08:31:30.107Z,49.50
2018-11-29T08:34:26.447Z,50.88
2018-11-29T08:37:23.247Z,50.20
2018-11-29T08:40:21.642Z,50.00
2018-11-29T08:43:18.072Z,53.08
2018-11-29T08:46:14.120Z,53.78
2018-11-29T08:49:10.564Z,51.92
2018-11-29T08:52:06.711Z,56.30
2018-11-29T08:55:04.164Z,55.03
2018-11-29T08:58:06.063Z,54.98
2018-11-29T09:01:03.408Z,52.53
2018-11-29T09:04:01.175Z,53.17
2018-11-29T09:07:04.005Z,53.20
2018-11-29T09:10:01.450Z,54.20
2018-11-29T09:12:59.455Z,56.00
2018-11-29T09:16:04.926Z,52.60
2018-11-29T09:19:10.050Z,56.53
2018-11-29T09:22:28.453Z,56.58
2018-11-29T09:25:40.806Z,55.03
2018-11-29T09:28:50.663Z,52.00
2018-11-29T09:31:49.313Z,51.33
2018-11-29T09:34:47.579Z,53.65
2018-11-29T09:37:47.247Z,52.60
2018-11-29T09:40:44.860Z,54.30
2018-11-29T09:43:45.722Z,53.90
2018-11-29T09:46:50.568Z,52.95
2018-11-29T09:49:46.025Z,51.28
2018-11-29T09:52:44.197Z,51.88
2018-11-29T09:55:42.438Z,52.93
2018-11-29T09:58:40.409Z,52.58
2018-11-29T10:01:38.768Z,55.45
2018-11-29T10:04:37.010Z,54.10
2018-11-29T10:07:35.329Z,54.13
2018-11-29T10:10:33.618Z,52.03
2018-11-29T10:13:34.731Z,53.58
2018-11-29T10:16:34.116Z,52.25
2018-11-29T10:19:31.449Z,53.30
2018-11-29T10:22:28.983Z,54.75
2018-11-29T10:25:29.616Z,55.83
2018-11-29T10:28:28.185Z,53.92
2018-11-29T10:31:27.174Z,54.05
2018-11-29T10:34:24.342Z,53.98
2018-11-29T10:37:22.212Z,56.92
2018-11-29T10:40:23.020Z,54.33
2018-11-29T10:43:24.476Z,55.75
2018-11-29T10:46:28.045Z,55.52
2018-11-29T10:49:25.500Z,55.05
2018-11-29T10:52:25.539Z,55.25
2018-11-29T10:55:26.837Z,57.50
2018-11-29T10:58:25.237Z,55.63
2018-11-29T11:01:36.362Z,55.67
2018-11-29T11:04:35.266Z,53.70
2018-11-29T11:07:33.237Z,54.83
2018-11-29T11:10:33.282Z,52.98
2018-11-29T11:13:34.776Z,54.63
2018-11-29T11:16:29.706Z,55.70
2018-11-29T11:19:29.002Z,54.27
2018-11-29T11:22:28.968Z,54.73
2018-11-29T11:25:28.806Z,58.87
2018-11-29T11:28:28.969Z,58.50
2018-11-29T11:31:31.211Z,59.45
2018-11-29T11:34:34.642Z,61.80
2018-11-29T11:37:35.907Z,61.68
2018-11-29T11:40:33.879Z,62.30
2018-11-29T11:43:33.974Z,61.37
2018-11-29T11:46:31.457Z,60.17
2018-11-29T11:49:28.929Z,61.58
2018-11-29T11:52:25.710Z,62.30
2018-11-29T11:55:29.476Z,62.05
2018-11-29T11:58:19.945Z,64.85
2018-11-29T12:01:16.831Z,65.75
2018-11-29T12:04:14.295Z,68.70
2018-11-29T12:07:16.469Z,72.72
2018-11-29T12:10:16.997Z,71.50
2018-11-29T12:13:17.252Z,68.40
2018-11-29T12:16:15.494Z,70.57
2018-11-29T12:19:13.095Z,67.62
2018-11-29T12:22:12.862Z,67.42
2018-11-29T12:25:13.012Z,69.77
2018-11-29T12:28:10.989Z,74.67
2018-11-29T12:31:08.626Z,72.12
2018-11-29T12:34:05.656Z,71.35
2018-11-29T12:37:03.280Z,74.22
2018-11-29T12:40:01.095Z,72.72
2018-11-29T12:42:59.520Z,78.97
2018-11-29T12:45:57.452Z,82.27
2018-11-29T12:48:54.884Z,87.37
2018-11-29T12:51:52.656Z,89.62
2018-11-29T12:54:49.986Z,90.80
2018-11-29T12:58:04.661Z,87.47
2018-11-29T13:00:47.578Z,87.27
2018-11-29T13:03:45.756Z,87.20
2018-11-29T13:06:44.050Z,88.50
2018-11-29T13:09:44.298Z,86.92
2018-11-29T13:12:42.072Z,86.55
2018-11-29T13:15:40.495Z,85.85
2018-11-29T13:18:38.562Z,81.95
2018-11-29T13:21:35.196Z,82.53
2018-11-29T13:24:31.989Z,83.12
2018-11-29T13:27:28.862Z,85.25
2018-11-29T13:30:27.679Z,86.05
2018-11-29T13:33:25.561Z,89.75
2018-11-29T13:36:27.924Z,92.50
2018-11-29T13:39:24.538Z,91.82
2018-11-29T13:42:22.140Z,93.33
2018-11-29T13:45:19.780Z,93.78
2018-11-29T13:48:18.063Z,91.08
2018-11-29T13:51:15.094Z,94.55
2018-11-29T13:54:14.464Z,95.92
2018-11-29T13:57:11.737Z,95.80
2018-11-29T14:00:09.785Z,97.10
2018-11-29T14:03:09.534Z,97.45
2018-11-29T14:06:07.974Z,99.90
2018-11-29T14:09:09.343Z,102.90
2018-11-29T14:12:06.586Z,106.03
2018-11-29T14:15:04.562Z,106.65
2018-11-29T14:18:02.058Z,108.67
2018-11-29T14:20:59.414Z,111.37
2018-11-29T14:23:57.102Z,110.70
2018-11-29T14:26:54.186Z,105.00
2018-11-29T14:29:52.327Z,107.25
2018-11-29T14:32:48.942Z,104.58
2018-11-29T14:35:49.224Z,101.55
2018-11-29T14:38:46.247Z,98.25
2018-11-29T14:41:43.738Z,98.25
2018-11-29T14:44:40.999Z,96.00
2018-11-29T14:47:38.462Z,94.40
2018-11-29T14:50:46.451Z,91.65
2018-11-29T14:53:45.087Z,90.70
2018-11-29T14:56:42.994Z,88.50
2018-11-29T14:59:40.427Z,88.00
2018-11-29T15:02:37.556Z,87.60
2018-11-29T15:05:37.105Z,89.87
2018-11-29T15:08:34.336Z,90.25
2018-11-29T15:11:32.167Z,92.90
2018-11-29T15:14:33.462Z,93.45
2018-11-29T15:17:28.193Z,94.42
2018-11-29T15:20:36.418Z,90.40
2018-11-29T15:23:34.765Z,88.42
2018-11-29T15:26:31.902Z,89.30
2018-11-29T15:29:29.088Z,90.57
2018-11-29T15:32:26.131Z,89.07
2018-11-29T15:35:24.650Z,90.20
2018-11-29T15:38:22.503Z,91.45
2018-11-29T15:41:19.885Z,90.57
2018-11-29T15:44:16.696Z,91.00
2018-11-29T15:47:14.680Z,93.90
2018-11-29T15:50:21.300Z,99.55
2018-11-29T15:53:18.165Z,103.45
2018-11-29T15:56:16.275Z,108.15
2018-11-29T15:59:14.255Z,106.30
2018-11-29T16:02:15.398Z,104.70
2018-11-29T16:05:09.732Z,99.32
2018-11-29T16:08:07.049Z,104.00
2018-11-29T16:11:04.609Z,104.38
2018-11-29T16:14:02.440Z,110.05
2018-11-29T16:17:00.054Z,113.85
2018-11-29T16:19:56.805Z,116.35
2018-11-29T16:22:54.715Z,116.88
2018-11-29T16:25:52.372Z,114.15
2018-11-29T16:28:50.218Z,106.52
2018-11-29T16:31:47.256Z,101.47
2018-11-29T16:34:45.019Z,98.78
2018-11-29T16:37:43.405Z,98.22
2018-11-29T16:40:41.354Z,93.75
2018-11-29T16:43:40.239Z,91.32
2018-11-29T16:46:38.718Z,92.72
2018-11-29T16:49:35.730Z,109.35
2018-11-29T16:52:32.827Z,102.95
2018-11-29T16:55:30.813Z,104.95
2018-11-29T16:58:36.944Z,102.97
2018-11-29T17:01:30.468Z,103.72
2018-11-29T17:04:27.745Z,105.43
2018-11-29T17:07:25.623Z,102.78
2018-11-29T17:10:27.037Z,98.97
2018-11-29T17:13:25.121Z,97.08
2018-11-29T17:16:22.610Z,98.87
2018-11-29T17:19:19.570Z,97.92
2018-11-29T17:22:16.911Z,98.65
2018-11-29T17:25:14.594Z,102.20
2018-11-29T17:28:15.810Z,94.62
2018-11-29T17:31:09.460Z,89.90
2018-11-29T17:34:09.079Z,90.03
2018-11-29T17:37:02.496Z,90.53
2018-11-29T17:39:58.531Z,96.63
2018-11-29T17:42:55.332Z,96.97
2018-11-29T17:45:51.625Z,96.90
2018-11-29T17:48:48.329Z,94.62
2018-11-29T17:51:44.257Z,95.53
2018-11-29T17:54:40.125Z,96.02
2018-11-29T17:57:36.469Z,95.97
2018-11-29T18:00:34.672Z,96.05
2018-11-29T18:03:30.861Z,94.03
2018-11-29T18:06:27.818Z,91.80
2018-11-29T18:09:24.673Z,92.85
2018-11-29T18:12:20.946Z,92.53
2018-11-29T18:15:25.673Z,92.45
2018-11-29T18:18:21.878Z,92.35
2018-11-29T18:21:18.330Z,89.35
2018-11-29T18:24:19.146Z,90.03
2018-11-29T18:27:17.017Z,90.03
2018-11-29T18:30:23.017Z,87.15
2018-11-29T18:33:19.674Z,85.92
2018-11-29T18:36:16.098Z,83.50
2018-11-29T18:39:14.641Z,85.53
2018-11-29T18:42:11.288Z,93.20
2018-11-29T18:45:08.600Z,89.05
2018-11-29T18:48:05.296Z,94.83
2018-11-29T18:51:01.756Z,95.47
2018-11-29T18:53:58.373Z,100.05
2018-11-29T18:56:54.814Z,103.92
2018-11-29T18:59:55.050Z,108.20
2018-11-29T19:02:48.302Z,111.55
2018-11-29T19:05:44.736Z,111.83
2018-11-29T19:08:42.568Z,111.50
2018-11-29T19:11:39.143Z,109.40
2018-11-29T19:14:35.261Z,112.97
2018-11-29T19:17:32.653Z,110.90
2018-11-29T19:20:29.373Z,111.60
2018-11-29T19:23:25.739Z,117.22
2018-11-29T19:26:21.949Z,108.92
2018-11-29T19:29:18.303Z,105.35
2018-11-29T19:32:15.379Z,104.10
2018-11-29T19:35:11.998Z,107.30
2018-11-29T19:38:08.059Z,104.55
2018-11-29T19:41:04.098Z,105.27
2018-11-29T19:44:00.490Z,101.72
2018-11-29T19:46:57.496Z,103.40
2018-11-29T19:49:54.596Z,97.30
2018-11-29T19:52:52.674Z,99.65
2018-11-29T19:55:49.782Z,102.45
2018-11-29T19:58:46.462Z,102.22
2018-11-29T20:01:42.914Z,100.35
2018-11-29T20:04:39.060Z,99.85
2018-11-29T20:07:35.929Z,99.42
2018-11-29T20:10:32.426Z,102.50
2018-11-29T20:13:28.923Z,103.07
2018-11-29T20:16:27.919Z,102.65
2018-11-29T20:19:24.458Z,100.38
2018-11-29T20:22:21.450Z,93.10
2018-11-29T20:25:21.697Z,87.95
2018-11-29T20:28:22.010Z,84.75
2018-11-29T20:31:15.390Z,84.03
2018-11-29T20:34:11.394Z,89.45
2018-11-29T20:37:08.220Z,90.60
2018-11-29T20:40:04.482Z,87.00
2018-11-29T20:43:05.085Z,83.55
2018-11-29T20:46:02.355Z,84.05
2018-11-29T20:48:59.352Z,87.78
2018-11-29T20:51:56.139Z,86.67
2018-11-29T20:54:53.121Z,86.40
2018-11-29T20:57:49.436Z,85.15
2018-11-29T21:00:46.429Z,85.70
2018-11-29T21:03:43.143Z,89.72
2018-11-29T21:06:42.704Z,86.92
2018-11-29T21:09:39.496Z,90.22
2018-11-29T21:12:36.343Z,89.20
2018-11-29T21:15:32.582Z,92.27
2018-11-29T21:18:29.009Z,89.55
2018-11-29T21:21:25.424Z,92.82
2018-11-29T21:24:21.496Z,87.90
2018-11-29T21:27:18.139Z,92.22
2018-11-29T21:30:21.537Z,88.52
2018-11-29T21:33:18.920Z,82.30
2018-11-29T21:36:15.279Z,83.50
2018-11-29T21:39:12.120Z,84.05
2018-11-29T21:42:08.622Z,84.42
2018-11-29T21:45:04.557Z,91.90
2018-11-29T21:48:03.009Z,87.30
2018-11-29T21:50:59.046Z,88.67
2018-11-29T21:53:55.842Z,89.75
2018-11-29T21:56:52.042Z,94.95
2018-11-29T21:59:48.037Z,95.05
2018-11-29T22:02:45.171Z,96.22
2018-11-29T22:05:41.729Z,97.53
2018-11-29T22:08:37.833Z,103.58
2018-11-29T22:11:34.202Z,101.67
2018-11-29T22:14:30.487Z,99.87
2018-11-29T22:17:27.130Z,103.40
2018-11-29T22:20:23.198Z,101.90
2018-11-29T22:23:19.745Z,97.45
2018-11-29T22:26:20.104Z,94.62
2018-11-29T22:29:20.540Z,91.82
2018-11-29T22:32:14.252Z,91.57
2018-11-29T22:35:10.752Z,94.13
2018-11-29T22:38:07.115Z,90.53
2018-11-29T22:41:03.351Z,90.87
2018-11-29T22:43:59.584Z,89.67
2018-11-29T22:46:56.196Z,90.60
2018-11-29T22:49:52.615Z,96.12
2018-11-29T22:52:48.596Z,96.65
2018-11-29T22:55:44.908Z,101.22
2018-11-29T22:58:41.282Z,105.05
2018-11-29T23:01:37.393Z,103.50
2018-11-29T23:04:33.739Z,103.45
2018-11-29T23:07:32.788Z,104.17
2018-11-29T23:10:32.610Z,101.53
2018-11-29T23:13:29.351Z,103.25
2018-11-29T23:16:25.578Z,104.75
2018-11-29T23:19:22.203Z,110.40
2018-11-29T23:22:18.674Z,131.40
2018-11-29T23:25:18.974Z,141.15
2018-11-29T23:28:15.533Z,145.30
2018-11-29T23:31:11.810Z,152.30
2018-11-29T23:34:08.645Z,154.35
2018-11-29T23:37:04.831Z,156.95
2018-11-29T23:40:01.055Z,169.82
2018-11-29T23:42:57.388Z,167.47
2018-11-29T23:45:53.889Z,162.80
2018-11-29T23:48:50.535Z,169.25
2018-11-29T23:51:50.440Z,163.05
2018-11-29T23:54:43.805Z,161.95
2018-11-29T23:57:40.427Z,161.12
